sensor_id;sensor_type;location;lat;lon;timestamp;P1;durP1;ratioP1;P2;durP2;ratioP2
22480;SDS011;11407;56.964;-2.212;2022-09-03T00:01:42;15.30;;;2.90;;
22480;SDS011;11407;56.964;-2.212;2022-09-03T00:05:07;9.17;;;2.90;;
22480;SDS011;11407;56.964;-2.212;2022-09-03T00:07:33;9.03;;;2.83;;
22480;SDS011;11407;56.964;-2.212;2022-09-03T00:11:21;10.07;;;2.90;;
22480;SDS011;11407;56.964;-2.212;2022-09-03T00:13:32;7.70;;;2.50;;
22480;SDS011;11407;56.964;-2.212;2022-09-03T00:16:02;10.57;;;3.20;;
22480;SDS011;11407;56.964;-2.212;2022-09-03T00:18:34;12.37;;;2.70;;
22480;SDS011;11407;56.964;-2.212;2022-09-03T00:21:11;11.40;;;2.70;;
22480;SDS011;11407;56.964;-2.212;2022-09-03T00:23:41;12.60;;;3.07;;
22480;SDS011;11407;56.964;-2.212;2022-09-03T00:28:40;15.13;;;3.00;;
22480;SDS011;11407;56.964;-2.212;2022-09-03T00:34:01;12.10;;;2.73;;
22480;SDS011;11407;56.964;-2.212;2022-09-03T00:36:35;12.37;;;2.90;;
22480;SDS011;11407;56.964;-2.212;2022-09-03T00:39:08;11.47;;;2.80;;
22480;SDS011;11407;56.964;-2.212;2022-09-03T00:41:39;16.40;;;3.60;;
22480;SDS011;11407;56.964;-2.212;2022-09-03T00:59:05;13.90;;;2.87;;
22480;SDS011;11407;56.964;-2.212;2022-09-03T01:07:00;12.87;;;3.20;;
22480;SDS011;11407;56.964;-2.212;2022-09-03T01:18:09;14.40;;;2.97;;
22480;SDS011;11407;56.964;-2.212;2022-09-03T01:21:02;10.70;;;3.10;;
22480;SDS011;11407;56.964;-2.212;2022-09-03T01:29:13;9.00;;;2.73;;
22480;SDS011;11407;56.964;-2.212;2022-09-03T01:31:57;10.83;;;2.50;;
22480;SDS011;11407;56.964;-2.212;2022-09-03T01:34:35;12.77;;;2.53;;
22480;SDS011;11407;56.964;-2.212;2022-09-03T01:42:49;10.63;;;2.73;;
22480;SDS011;11407;56.964;-2.212;2022-09-03T01:45:39;12.50;;;2.70;;
22480;SDS011;11407;56.964;-2.212;2022-09-03T01:48:36;14.37;;;2.77;;
22480;SDS011;11407;56.964;-2.212;2022-09-03T01:51:12;6.93;;;2.27;;
22480;SDS011;11407;56.964;-2.212;2022-09-03T01:59:42;8.63;;;2.20;;
22480;SDS011;11407;56.964;-2.212;2022-09-03T02:02:17;14.47;;;3.17;;
22480;SDS011;11407;56.964;-2.212;2022-09-03T02:07:23;11.00;;;2.87;;
22480;SDS011;11407;56.964;-2.212;2022-09-03T02:09:57;9.13;;;2.53;;
22480;SDS011;11407;56.964;-2.212;2022-09-03T02:12:23;20.87;;;4.23;;
22480;SDS011;11407;56.964;-2.212;2022-09-03T02:14:49;14.43;;;2.87;;
22480;SDS011;11407;56.964;-2.212;2022-09-03T02:17:15;13.03;;;2.80;;
22480;SDS011;11407;56.964;-2.212;2022-09-03T02:19:40;13.50;;;2.80;;
22480;SDS011;11407;56.964;-2.212;2022-09-03T02:22:06;10.13;;;2.80;;
22480;SDS011;11407;56.964;-2.212;2022-09-03T02:24:32;16.90;;;3.53;;
22480;SDS011;11407;56.964;-2.212;2022-09-03T02:26:57;12.83;;;3.17;;
22480;SDS011;11407;56.964;-2.212;2022-09-03T02:29:23;13.93;;;3.23;;
22480;SDS011;11407;56.964;-2.212;2022-09-03T02:31:49;14.03;;;3.03;;
22480;SDS011;11407;56.964;-2.212;2022-09-03T02:34:15;13.20;;;2.63;;
22480;SDS011;11407;56.964;-2.212;2022-09-03T02:36:43;10.47;;;2.60;;
22480;SDS011;11407;56.964;-2.212;2022-09-03T02:39:11;13.53;;;2.33;;
22480;SDS011;11407;56.964;-2.212;2022-09-03T02:41:37;15.37;;;2.83;;
22480;SDS011;11407;56.964;-2.212;2022-09-03T02:49:22;13.13;;;3.20;;
22480;SDS011;11407;56.964;-2.212;2022-09-03T02:51:48;17.53;;;4.23;;
22480;SDS011;11407;56.964;-2.212;2022-09-03T02:54:13;13.67;;;3.23;;
22480;SDS011;11407;56.964;-2.212;2022-09-03T02:56:39;13.10;;;3.00;;
22480;SDS011;11407;56.964;-2.212;2022-09-03T02:59:05;10.77;;;2.73;;
22480;SDS011;11407;56.964;-2.212;2022-09-03T03:01:33;15.87;;;2.63;;
22480;SDS011;11407;56.964;-2.212;2022-09-03T03:03:59;18.37;;;3.17;;
22480;SDS011;11407;56.964;-2.212;2022-09-03T03:06:25;13.70;;;2.80;;
22480;SDS011;11407;56.964;-2.212;2022-09-03T03:08:51;15.07;;;3.30;;
22480;SDS011;11407;56.964;-2.212;2022-09-03T03:11:19;12.90;;;3.17;;
22480;SDS011;11407;56.964;-2.212;2022-09-03T03:13:46;16.63;;;3.33;;
22480;SDS011;11407;56.964;-2.212;2022-09-03T03:16:12;10.27;;;2.67;;
22480;SDS011;11407;56.964;-2.212;2022-09-03T03:18:39;11.80;;;2.70;;
22480;SDS011;11407;56.964;-2.212;2022-09-03T03:21:05;9.60;;;2.90;;
22480;SDS011;11407;56.964;-2.212;2022-09-03T03:23:32;11.63;;;3.10;;
22480;SDS011;11407;56.964;-2.212;2022-09-03T03:26:02;12.47;;;3.00;;
22480;SDS011;11407;56.964;-2.212;2022-09-03T03:28:28;12.10;;;2.50;;
22480;SDS011;11407;56.964;-2.212;2022-09-03T03:30:58;13.33;;;2.70;;
22480;SDS011;11407;56.964;-2.212;2022-09-03T03:33:34;15.13;;;3.33;;
22480;SDS011;11407;56.964;-2.212;2022-09-03T03:36:07;9.10;;;2.33;;
22480;SDS011;11407;56.964;-2.212;2022-09-03T03:38:35;13.83;;;2.97;;
22480;SDS011;11407;56.964;-2.212;2022-09-03T03:43:33;13.73;;;3.10;;
22480;SDS011;11407;56.964;-2.212;2022-09-03T03:45:59;16.60;;;3.10;;
22480;SDS011;11407;56.964;-2.212;2022-09-03T03:48:25;13.77;;;3.27;;
22480;SDS011;11407;56.964;-2.212;2022-09-03T03:50:50;13.43;;;3.77;;
22480;SDS011;11407;56.964;-2.212;2022-09-03T03:53:16;15.73;;;3.10;;
22480;SDS011;11407;56.964;-2.212;2022-09-03T03:55:42;14.07;;;2.90;;
22480;SDS011;11407;56.964;-2.212;2022-09-03T03:58:07;18.47;;;4.00;;
22480;SDS011;11407;56.964;-2.212;2022-09-03T04:00:33;9.73;;;2.30;;
22480;SDS011;11407;56.964;-2.212;2022-09-03T04:03:01;12.77;;;2.80;;
22480;SDS011;11407;56.964;-2.212;2022-09-03T04:05:26;19.63;;;3.00;;
22480;SDS011;11407;56.964;-2.212;2022-09-03T04:07:52;14.70;;;2.80;;
22480;SDS011;11407;56.964;-2.212;2022-09-03T04:10:17;14.30;;;2.80;;
22480;SDS011;11407;56.964;-2.212;2022-09-03T04:12:42;11.20;;;2.67;;
22480;SDS011;11407;56.964;-2.212;2022-09-03T04:15:08;10.63;;;3.03;;
22480;SDS011;11407;56.964;-2.212;2022-09-03T04:17:34;17.10;;;2.80;;
22480;SDS011;11407;56.964;-2.212;2022-09-03T04:19:59;13.50;;;3.07;;
22480;SDS011;11407;56.964;-2.212;2022-09-03T04:22:26;11.40;;;2.60;;
22480;SDS011;11407;56.964;-2.212;2022-09-03T04:24:53;15.13;;;3.00;;
22480;SDS011;11407;56.964;-2.212;2022-09-03T04:27:18;19.10;;;3.50;;
22480;SDS011;11407;56.964;-2.212;2022-09-03T04:29:43;19.17;;;3.43;;
22480;SDS011;11407;56.964;-2.212;2022-09-03T04:32:09;12.47;;;3.73;;
22480;SDS011;11407;56.964;-2.212;2022-09-03T04:34:53;20.27;;;3.80;;
22480;SDS011;11407;56.964;-2.212;2022-09-03T04:37:18;20.07;;;3.47;;
22480;SDS011;11407;56.964;-2.212;2022-09-03T04:39:44;16.20;;;3.50;;
22480;SDS011;11407;56.964;-2.212;2022-09-03T04:42:10;13.53;;;3.23;;
22480;SDS011;11407;56.964;-2.212;2022-09-03T04:44:35;16.40;;;3.33;;
22480;SDS011;11407;56.964;-2.212;2022-09-03T04:47:02;13.30;;;2.83;;
22480;SDS011;11407;56.964;-2.212;2022-09-03T04:49:29;20.97;;;4.10;;
22480;SDS011;11407;56.964;-2.212;2022-09-03T04:51:54;19.23;;;4.20;;
22480;SDS011;11407;56.964;-2.212;2022-09-03T04:54:20;16.47;;;3.63;;
22480;SDS011;11407;56.964;-2.212;2022-09-03T04:56:46;17.30;;;3.70;;
22480;SDS011;11407;56.964;-2.212;2022-09-03T04:59:11;15.87;;;3.10;;
22480;SDS011;11407;56.964;-2.212;2022-09-03T05:01:38;14.13;;;3.23;;
22480;SDS011;11407;56.964;-2.212;2022-09-03T05:04:04;14.17;;;3.17;;
22480;SDS011;11407;56.964;-2.212;2022-09-03T05:06:31;16.13;;;3.90;;
22480;SDS011;11407;56.964;-2.212;2022-09-03T05:08:57;13.60;;;3.17;;
22480;SDS011;11407;56.964;-2.212;2022-09-03T05:11:24;13.57;;;3.20;;
22480;SDS011;11407;56.964;-2.212;2022-09-03T05:13:51;13.87;;;3.00;;
22480;SDS011;11407;56.964;-2.212;2022-09-03T05:16:19;15.27;;;3.67;;
22480;SDS011;11407;56.964;-2.212;2022-09-03T05:18:45;20.07;;;3.20;;
22480;SDS011;11407;56.964;-2.212;2022-09-03T05:21:13;16.30;;;3.93;;
22480;SDS011;11407;56.964;-2.212;2022-09-03T05:23:40;20.40;;;3.73;;
22480;SDS011;11407;56.964;-2.212;2022-09-03T05:26:08;15.73;;;3.73;;
22480;SDS011;11407;56.964;-2.212;2022-09-03T05:28:37;13.63;;;3.23;;
22480;SDS011;11407;56.964;-2.212;2022-09-03T05:31:05;12.00;;;2.70;;
22480;SDS011;11407;56.964;-2.212;2022-09-03T05:33:45;16.57;;;3.10;;
22480;SDS011;11407;56.964;-2.212;2022-09-03T05:36:16;18.00;;;3.77;;
22480;SDS011;11407;56.964;-2.212;2022-09-03T05:38:43;21.87;;;3.40;;
22480;SDS011;11407;56.964;-2.212;2022-09-03T05:41:11;18.33;;;4.10;;
22480;SDS011;11407;56.964;-2.212;2022-09-03T05:43:38;18.40;;;3.70;;
22480;SDS011;11407;56.964;-2.212;2022-09-03T05:46:11;21.40;;;3.53;;
22480;SDS011;11407;56.964;-2.212;2022-09-03T05:48:40;17.83;;;3.80;;
22480;SDS011;11407;56.964;-2.212;2022-09-03T05:51:11;14.90;;;3.67;;
22480;SDS011;11407;56.964;-2.212;2022-09-03T05:53:42;17.90;;;3.63;;
22480;SDS011;11407;56.964;-2.212;2022-09-03T05:56:11;15.90;;;3.70;;
22480;SDS011;11407;56.964;-2.212;2022-09-03T05:58:41;15.63;;;3.40;;
22480;SDS011;11407;56.964;-2.212;2022-09-03T06:01:12;16.87;;;4.03;;
22480;SDS011;11407;56.964;-2.212;2022-09-03T06:03:39;22.33;;;3.93;;
22480;SDS011;11407;56.964;-2.212;2022-09-03T06:06:06;19.87;;;4.07;;
22480;SDS011;11407;56.964;-2.212;2022-09-03T06:08:32;18.87;;;3.60;;
22480;SDS011;11407;56.964;-2.212;2022-09-03T06:10:59;17.00;;;3.97;;
22480;SDS011;11407;56.964;-2.212;2022-09-03T06:13:27;26.50;;;5.30;;
22480;SDS011;11407;56.964;-2.212;2022-09-03T06:15:57;18.00;;;4.30;;
22480;SDS011;11407;56.964;-2.212;2022-09-03T06:18:24;23.53;;;5.07;;
22480;SDS011;11407;56.964;-2.212;2022-09-03T06:20:54;26.17;;;5.70;;
22480;SDS011;11407;56.964;-2.212;2022-09-03T06:23:21;21.53;;;4.63;;
22480;SDS011;11407;56.964;-2.212;2022-09-03T06:25:47;28.17;;;5.47;;
22480;SDS011;11407;56.964;-2.212;2022-09-03T06:28:12;17.80;;;4.13;;
22480;SDS011;11407;56.964;-2.212;2022-09-03T06:30:37;21.83;;;4.80;;
22480;SDS011;11407;56.964;-2.212;2022-09-03T06:33:03;26.87;;;5.23;;
22480;SDS011;11407;56.964;-2.212;2022-09-03T06:35:29;27.10;;;5.43;;
22480;SDS011;11407;56.964;-2.212;2022-09-03T06:37:54;20.33;;;4.80;;
22480;SDS011;11407;56.964;-2.212;2022-09-03T06:40:20;25.60;;;5.13;;
22480;SDS011;11407;56.964;-2.212;2022-09-03T06:42:56;25.73;;;5.47;;
22480;SDS011;11407;56.964;-2.212;2022-09-03T06:45:28;28.00;;;5.40;;
22480;SDS011;11407;56.964;-2.212;2022-09-03T06:47:54;25.33;;;5.33;;
22480;SDS011;11407;56.964;-2.212;2022-09-03T06:50:20;19.00;;;4.33;;
22480;SDS011;11407;56.964;-2.212;2022-09-03T06:52:52;19.33;;;4.37;;
22480;SDS011;11407;56.964;-2.212;2022-09-03T06:55:21;17.90;;;4.03;;
22480;SDS011;11407;56.964;-2.212;2022-09-03T06:57:47;15.00;;;3.27;;
22480;SDS011;11407;56.964;-2.212;2022-09-03T07:00:12;21.97;;;4.80;;
22480;SDS011;11407;56.964;-2.212;2022-09-03T07:02:38;26.77;;;4.97;;
22480;SDS011;11407;56.964;-2.212;2022-09-03T07:05:05;31.53;;;5.50;;
22480;SDS011;11407;56.964;-2.212;2022-09-03T07:07:32;26.70;;;5.10;;
22480;SDS011;11407;56.964;-2.212;2022-09-03T07:09:58;36.17;;;6.03;;
22480;SDS011;11407;56.964;-2.212;2022-09-03T07:12:23;28.57;;;6.50;;
22480;SDS011;11407;56.964;-2.212;2022-09-03T07:14:49;29.33;;;6.60;;
22480;SDS011;11407;56.964;-2.212;2022-09-03T07:17:15;26.47;;;5.47;;
22480;SDS011;11407;56.964;-2.212;2022-09-03T07:19:40;24.87;;;5.00;;
22480;SDS011;11407;56.964;-2.212;2022-09-03T07:22:06;19.10;;;4.70;;
22480;SDS011;11407;56.964;-2.212;2022-09-03T07:24:32;23.67;;;4.77;;
22480;SDS011;11407;56.964;-2.212;2022-09-03T07:26:58;20.30;;;4.30;;
22480;SDS011;11407;56.964;-2.212;2022-09-03T07:29:24;27.03;;;4.70;;
22480;SDS011;11407;56.964;-2.212;2022-09-03T07:31:49;23.10;;;4.83;;
22480;SDS011;11407;56.964;-2.212;2022-09-03T07:34:15;26.87;;;4.80;;
22480;SDS011;11407;56.964;-2.212;2022-09-03T07:36:42;25.67;;;4.63;;
22480;SDS011;11407;56.964;-2.212;2022-09-03T07:39:11;27.50;;;5.13;;
22480;SDS011;11407;56.964;-2.212;2022-09-03T07:41:37;30.17;;;5.53;;
22480;SDS011;11407;56.964;-2.212;2022-09-03T07:44:07;27.67;;;6.33;;
22480;SDS011;11407;56.964;-2.212;2022-09-03T07:46:34;31.13;;;5.57;;
22480;SDS011;11407;56.964;-2.212;2022-09-03T07:49:02;22.50;;;4.80;;
22480;SDS011;11407;56.964;-2.212;2022-09-03T07:51:29;25.30;;;4.57;;
22480;SDS011;11407;56.964;-2.212;2022-09-03T07:53:57;22.47;;;4.40;;
22480;SDS011;11407;56.964;-2.212;2022-09-03T07:56:26;16.07;;;3.50;;
22480;SDS011;11407;56.964;-2.212;2022-09-03T07:58:55;22.10;;;3.87;;
22480;SDS011;11407;56.964;-2.212;2022-09-03T08:01:21;22.70;;;4.13;;
22480;SDS011;11407;56.964;-2.212;2022-09-03T08:03:48;20.53;;;4.63;;
22480;SDS011;11407;56.964;-2.212;2022-09-03T08:06:16;20.07;;;3.67;;
22480;SDS011;11407;56.964;-2.212;2022-09-03T08:08:43;23.37;;;4.40;;
22480;SDS011;11407;56.964;-2.212;2022-09-03T08:13:41;20.83;;;3.83;;
22480;SDS011;11407;56.964;-2.212;2022-09-03T08:16:28;19.50;;;4.00;;
22480;SDS011;11407;56.964;-2.212;2022-09-03T08:18:55;19.30;;;4.37;;
22480;SDS011;11407;56.964;-2.212;2022-09-03T08:21:21;17.33;;;3.40;;
22480;SDS011;11407;56.964;-2.212;2022-09-03T08:23:48;17.80;;;3.90;;
22480;SDS011;11407;56.964;-2.212;2022-09-03T08:26:16;21.70;;;4.10;;
22480;SDS011;11407;56.964;-2.212;2022-09-03T08:28:42;20.90;;;4.27;;
22480;SDS011;11407;56.964;-2.212;2022-09-03T08:33:36;21.40;;;4.70;;
22480;SDS011;11407;56.964;-2.212;2022-09-03T08:36:06;17.80;;;4.33;;
22480;SDS011;11407;56.964;-2.212;2022-09-03T08:38:32;20.20;;;4.20;;
22480;SDS011;11407;56.964;-2.212;2022-09-03T08:49:10;20.07;;;4.57;;
22480;SDS011;11407;56.964;-2.212;2022-09-03T08:51:38;23.77;;;4.73;;
22480;SDS011;11407;56.964;-2.212;2022-09-03T08:54:06;20.77;;;4.77;;
22480;SDS011;11407;56.964;-2.212;2022-09-03T08:56:36;18.40;;;3.93;;
22480;SDS011;11407;56.964;-2.212;2022-09-03T08:59:04;19.70;;;4.60;;
22480;SDS011;11407;56.964;-2.212;2022-09-03T09:06:58;19.43;;;4.23;;
22480;SDS011;11407;56.964;-2.212;2022-09-03T09:12:34;19.40;;;3.63;;
22480;SDS011;11407;56.964;-2.212;2022-09-03T09:18:03;26.30;;;4.60;;
22480;SDS011;11407;56.964;-2.212;2022-09-03T09:21:10;20.23;;;4.30;;
22480;SDS011;11407;56.964;-2.212;2022-09-03T09:23:42;21.77;;;4.10;;
22480;SDS011;11407;56.964;-2.212;2022-09-03T09:26:11;25.63;;;4.20;;
22480;SDS011;11407;56.964;-2.212;2022-09-03T09:28:40;21.63;;;4.07;;
22480;SDS011;11407;56.964;-2.212;2022-09-03T09:31:09;23.20;;;5.20;;
22480;SDS011;11407;56.964;-2.212;2022-09-03T09:33:39;23.00;;;4.50;;
22480;SDS011;11407;56.964;-2.212;2022-09-03T09:36:06;20.23;;;5.27;;
22480;SDS011;11407;56.964;-2.212;2022-09-03T09:38:36;24.77;;;5.53;;
22480;SDS011;11407;56.964;-2.212;2022-09-03T09:41:10;19.50;;;4.03;;
22480;SDS011;11407;56.964;-2.212;2022-09-03T09:43:38;24.87;;;6.03;;
22480;SDS011;11407;56.964;-2.212;2022-09-03T09:46:05;24.27;;;4.30;;
22480;SDS011;11407;56.964;-2.212;2022-09-03T09:48:37;25.17;;;4.50;;
22480;SDS011;11407;56.964;-2.212;2022-09-03T09:51:12;21.77;;;3.83;;
22480;SDS011;11407;56.964;-2.212;2022-09-03T09:54:34;24.37;;;5.03;;
22480;SDS011;11407;56.964;-2.212;2022-09-03T09:56:44;22.27;;;5.03;;
22480;SDS011;11407;56.964;-2.212;2022-09-03T09:59:11;24.00;;;5.00;;
22480;SDS011;11407;56.964;-2.212;2022-09-03T10:01:39;25.87;;;4.97;;
22480;SDS011;11407;56.964;-2.212;2022-09-03T10:04:20;21.27;;;4.57;;
22480;SDS011;11407;56.964;-2.212;2022-09-03T10:07:00;21.13;;;4.20;;
22480;SDS011;11407;56.964;-2.212;2022-09-03T10:09:30;26.43;;;4.83;;
22480;SDS011;11407;56.964;-2.212;2022-09-03T10:14:37;18.33;;;3.83;;
22480;SDS011;11407;56.964;-2.212;2022-09-03T10:17:13;30.93;;;5.30;;
22480;SDS011;11407;56.964;-2.212;2022-09-03T10:22:55;19.50;;;4.17;;
22480;SDS011;11407;56.964;-2.212;2022-09-03T10:28:21;26.00;;;4.43;;
22480;SDS011;11407;56.964;-2.212;2022-09-03T10:33:39;24.73;;;5.00;;
22480;SDS011;11407;56.964;-2.212;2022-09-03T10:39:22;25.37;;;4.90;;
22480;SDS011;11407;56.964;-2.212;2022-09-03T10:42:10;26.97;;;5.33;;
22480;SDS011;11407;56.964;-2.212;2022-09-03T10:47:45;24.20;;;5.30;;
22480;SDS011;11407;56.964;-2.212;2022-09-03T10:50:49;25.27;;;4.33;;
22480;SDS011;11407;56.964;-2.212;2022-09-03T10:56:08;23.90;;;5.50;;
22480;SDS011;11407;56.964;-2.212;2022-09-03T11:04:18;22.90;;;4.90;;
22480;SDS011;11407;56.964;-2.212;2022-09-03T11:06:51;18.20;;;4.57;;
22480;SDS011;11407;56.964;-2.212;2022-09-03T11:09:24;25.53;;;4.70;;
22480;SDS011;11407;56.964;-2.212;2022-09-03T11:12:14;17.37;;;3.70;;
22480;SDS011;11407;56.964;-2.212;2022-09-03T11:14:49;22.97;;;5.10;;
22480;SDS011;11407;56.964;-2.212;2022-09-03T11:17:24;18.40;;;4.40;;
22480;SDS011;11407;56.964;-2.212;2022-09-03T11:20:05;24.10;;;3.90;;
22480;SDS011;11407;56.964;-2.212;2022-09-03T11:22:42;15.93;;;4.23;;
22480;SDS011;11407;56.964;-2.212;2022-09-03T11:25:10;23.33;;;5.30;;
22480;SDS011;11407;56.964;-2.212;2022-09-03T11:33:37;23.27;;;5.00;;
22480;SDS011;11407;56.964;-2.212;2022-09-03T11:36:09;20.17;;;5.10;;
22480;SDS011;11407;56.964;-2.212;2022-09-03T11:38:35;25.30;;;5.23;;
22480;SDS011;11407;56.964;-2.212;2022-09-03T11:43:40;22.87;;;4.50;;
22480;SDS011;11407;56.964;-2.212;2022-09-03T11:46:12;19.53;;;4.17;;
22480;SDS011;11407;56.964;-2.212;2022-09-03T11:51:20;21.60;;;4.67;;
22480;SDS011;11407;56.964;-2.212;2022-09-03T11:56:44;21.87;;;4.20;;
22480;SDS011;11407;56.964;-2.212;2022-09-03T12:04:16;24.77;;;4.57;;
22480;SDS011;11407;56.964;-2.212;2022-09-03T12:15:02;18.93;;;4.50;;
22480;SDS011;11407;56.964;-2.212;2022-09-03T12:20:34;19.90;;;3.93;;
22480;SDS011;11407;56.964;-2.212;2022-09-03T12:23:00;21.77;;;4.93;;
22480;SDS011;11407;56.964;-2.212;2022-09-03T12:25:27;24.43;;;5.23;;
22480;SDS011;11407;56.964;-2.212;2022-09-03T12:27:52;25.87;;;5.03;;
22480;SDS011;11407;56.964;-2.212;2022-09-03T12:30:20;27.70;;;4.80;;
22480;SDS011;11407;56.964;-2.212;2022-09-03T12:32:47;18.97;;;4.53;;
22480;SDS011;11407;56.964;-2.212;2022-09-03T12:35:17;22.27;;;4.60;;
22480;SDS011;11407;56.964;-2.212;2022-09-03T12:37:45;17.03;;;4.23;;
22480;SDS011;11407;56.964;-2.212;2022-09-03T12:40:21;19.23;;;4.77;;
22480;SDS011;11407;56.964;-2.212;2022-09-03T12:42:48;24.00;;;4.57;;
22480;SDS011;11407;56.964;-2.212;2022-09-03T12:45:17;27.43;;;5.20;;
22480;SDS011;11407;56.964;-2.212;2022-09-03T12:47:47;18.00;;;4.80;;
22480;SDS011;11407;56.964;-2.212;2022-09-03T12:50:14;22.53;;;5.43;;
22480;SDS011;11407;56.964;-2.212;2022-09-03T12:58:08;15.20;;;3.60;;
22480;SDS011;11407;56.964;-2.212;2022-09-03T13:00:36;24.27;;;4.73;;
22480;SDS011;11407;56.964;-2.212;2022-09-03T13:06:12;18.37;;;4.13;;
22480;SDS011;11407;56.964;-2.212;2022-09-03T13:08:49;20.90;;;4.50;;
22480;SDS011;11407;56.964;-2.212;2022-09-03T13:11:19;20.97;;;5.23;;
22480;SDS011;11407;56.964;-2.212;2022-09-03T13:13:51;21.77;;;4.60;;
22480;SDS011;11407;56.964;-2.212;2022-09-03T13:19:21;22.73;;;4.73;;
22480;SDS011;11407;56.964;-2.212;2022-09-03T13:22:16;22.03;;;4.27;;
22480;SDS011;11407;56.964;-2.212;2022-09-03T13:30:01;21.03;;;4.27;;
22480;SDS011;11407;56.964;-2.212;2022-09-03T13:42:57;23.27;;;5.27;;
22480;SDS011;11407;56.964;-2.212;2022-09-03T13:45:43;24.97;;;5.13;;
22480;SDS011;11407;56.964;-2.212;2022-09-03T13:48:27;25.63;;;5.13;;
22480;SDS011;11407;56.964;-2.212;2022-09-03T13:51:30;19.27;;;5.00;;
22480;SDS011;11407;56.964;-2.212;2022-09-03T13:54:28;21.93;;;4.60;;
22480;SDS011;11407;56.964;-2.212;2022-09-03T13:57:00;20.73;;;4.67;;
22480;SDS011;11407;56.964;-2.212;2022-09-03T13:59:39;18.30;;;4.30;;
22480;SDS011;11407;56.964;-2.212;2022-09-03T14:05:00;18.03;;;4.60;;
22480;SDS011;11407;56.964;-2.212;2022-09-03T14:07:41;22.73;;;4.77;;
22480;SDS011;11407;56.964;-2.212;2022-09-03T14:18:57;18.33;;;5.13;;
22480;SDS011;11407;56.964;-2.212;2022-09-03T14:21:35;24.70;;;5.87;;
22480;SDS011;11407;56.964;-2.212;2022-09-03T14:26:30;24.63;;;5.30;;
22480;SDS011;11407;56.964;-2.212;2022-09-03T14:28:59;25.47;;;4.90;;
22480;SDS011;11407;56.964;-2.212;2022-09-03T14:34:00;23.37;;;5.23;;
22480;SDS011;11407;56.964;-2.212;2022-09-03T14:36:38;22.97;;;5.00;;
22480;SDS011;11407;56.964;-2.212;2022-09-03T14:50:18;20.00;;;5.00;;
22480;SDS011;11407;56.964;-2.212;2022-09-03T14:53:05;18.07;;;5.07;;
22480;SDS011;11407;56.964;-2.212;2022-09-03T15:01:24;22.37;;;5.03;;
22480;SDS011;11407;56.964;-2.212;2022-09-03T15:12:29;19.63;;;5.23;;
22480;SDS011;11407;56.964;-2.212;2022-09-03T15:15:04;20.57;;;4.97;;
22480;SDS011;11407;56.964;-2.212;2022-09-03T15:20:20;21.57;;;4.90;;
22480;SDS011;11407;56.964;-2.212;2022-09-03T15:31:35;27.07;;;5.70;;
22480;SDS011;11407;56.964;-2.212;2022-09-03T15:34:11;24.23;;;5.27;;
22480;SDS011;11407;56.964;-2.212;2022-09-03T15:36:59;25.60;;;5.67;;
22480;SDS011;11407;56.964;-2.212;2022-09-03T15:39:34;24.63;;;5.43;;
22480;SDS011;11407;56.964;-2.212;2022-09-03T15:42:10;24.37;;;5.10;;
22480;SDS011;11407;56.964;-2.212;2022-09-03T15:44:46;20.97;;;5.17;;
22480;SDS011;11407;56.964;-2.212;2022-09-03T15:47:50;27.53;;;4.93;;
22480;SDS011;11407;56.964;-2.212;2022-09-03T15:50:24;20.27;;;4.83;;
22480;SDS011;11407;56.964;-2.212;2022-09-03T15:52:58;25.97;;;5.53;;
22480;SDS011;11407;56.964;-2.212;2022-09-03T15:55:38;22.00;;;4.83;;
22480;SDS011;11407;56.964;-2.212;2022-09-03T16:03:38;26.33;;;5.80;;
22480;SDS011;11407;56.964;-2.212;2022-09-03T16:14:59;23.47;;;5.63;;
22480;SDS011;11407;56.964;-2.212;2022-09-03T16:17:35;23.40;;;5.10;;
22480;SDS011;11407;56.964;-2.212;2022-09-03T16:20:20;21.67;;;5.40;;
22480;SDS011;11407;56.964;-2.212;2022-09-03T16:22:59;20.10;;;5.33;;
22480;SDS011;11407;56.964;-2.212;2022-09-03T16:25:31;19.57;;;4.87;;
22480;SDS011;11407;56.964;-2.212;2022-09-03T16:28:19;19.43;;;4.77;;
22480;SDS011;11407;56.964;-2.212;2022-09-03T16:42:26;15.90;;;4.93;;
22480;SDS011;11407;56.964;-2.212;2022-09-03T16:47:51;21.20;;;4.77;;
22480;SDS011;11407;56.964;-2.212;2022-09-03T17:06:30;14.00;;;4.73;;
22480;SDS011;11407;56.964;-2.212;2022-09-03T17:17:31;24.97;;;6.30;;
22480;SDS011;11407;56.964;-2.212;2022-09-03T17:28:00;20.73;;;4.87;;
22480;SDS011;11407;56.964;-2.212;2022-09-03T17:36:24;21.23;;;5.47;;
22480;SDS011;11407;56.964;-2.212;2022-09-03T17:41:46;24.37;;;5.00;;
22480;SDS011;11407;56.964;-2.212;2022-09-03T17:46:51;21.97;;;4.53;;
22480;SDS011;11407;56.964;-2.212;2022-09-03T17:49:39;19.60;;;4.40;;
22480;SDS011;11407;56.964;-2.212;2022-09-03T17:55:14;20.47;;;4.10;;
22480;SDS011;11407;56.964;-2.212;2022-09-03T17:57:50;25.53;;;5.30;;
22480;SDS011;11407;56.964;-2.212;2022-09-03T18:00:31;22.73;;;4.83;;
22480;SDS011;11407;56.964;-2.212;2022-09-03T18:03:16;19.47;;;4.83;;
22480;SDS011;11407;56.964;-2.212;2022-09-03T18:06:08;21.10;;;5.50;;
22480;SDS011;11407;56.964;-2.212;2022-09-03T18:08:40;21.60;;;5.03;;
22480;SDS011;11407;56.964;-2.212;2022-09-03T18:11:18;19.83;;;4.70;;
22480;SDS011;11407;56.964;-2.212;2022-09-03T18:16:45;26.70;;;4.73;;
22480;SDS011;11407;56.964;-2.212;2022-09-03T18:19:30;22.33;;;5.27;;
22480;SDS011;11407;56.964;-2.212;2022-09-03T18:22:17;15.40;;;5.00;;
22480;SDS011;11407;56.964;-2.212;2022-09-03T18:25:04;20.10;;;5.03;;
22480;SDS011;11407;56.964;-2.212;2022-09-03T18:27:53;19.53;;;4.90;;
22480;SDS011;11407;56.964;-2.212;2022-09-03T18:30:42;19.57;;;4.47;;
22480;SDS011;11407;56.964;-2.212;2022-09-03T18:33:26;21.80;;;4.67;;
22480;SDS011;11407;56.964;-2.212;2022-09-03T18:36:10;15.47;;;4.60;;
22480;SDS011;11407;56.964;-2.212;2022-09-03T18:38:57;23.03;;;4.70;;
22480;SDS011;11407;56.964;-2.212;2022-09-03T18:42:13;20.37;;;4.83;;
22480;SDS011;11407;56.964;-2.212;2022-09-03T18:45:34;22.93;;;4.70;;
22480;SDS011;11407;56.964;-2.212;2022-09-03T18:51:38;17.57;;;4.73;;
22480;SDS011;11407;56.964;-2.212;2022-09-03T18:54:33;20.43;;;5.40;;
22480;SDS011;11407;56.964;-2.212;2022-09-03T18:57:48;21.73;;;4.70;;
22480;SDS011;11407;56.964;-2.212;2022-09-03T19:03:56;23.87;;;5.03;;
22480;SDS011;11407;56.964;-2.212;2022-09-03T19:21:04;18.23;;;4.77;;
22480;SDS011;11407;56.964;-2.212;2022-09-03T19:24:10;16.30;;;3.70;;
22480;SDS011;11407;56.964;-2.212;2022-09-03T19:30:08;17.17;;;4.83;;
22480;SDS011;11407;56.964;-2.212;2022-09-03T19:36:26;22.23;;;5.67;;
22480;SDS011;11407;56.964;-2.212;2022-09-03T19:50:36;18.93;;;4.53;;
22480;SDS011;11407;56.964;-2.212;2022-09-03T19:53:25;15.73;;;3.47;;
22480;SDS011;11407;56.964;-2.212;2022-09-03T19:56:14;23.20;;;4.90;;
22480;SDS011;11407;56.964;-2.212;2022-09-03T19:59:17;19.70;;;4.60;;
22480;SDS011;11407;56.964;-2.212;2022-09-03T20:02:03;22.10;;;4.30;;
22480;SDS011;11407;56.964;-2.212;2022-09-03T20:04:57;19.37;;;4.00;;
22480;SDS011;11407;56.964;-2.212;2022-09-03T20:07:44;25.47;;;4.80;;
22480;SDS011;11407;56.964;-2.212;2022-09-03T20:10:32;20.67;;;4.53;;
22480;SDS011;11407;56.964;-2.212;2022-09-03T20:15:25;19.57;;;4.77;;
22480;SDS011;11407;56.964;-2.212;2022-09-03T20:20:38;19.93;;;4.37;;
22480;SDS011;11407;56.964;-2.212;2022-09-03T20:25:53;22.23;;;4.47;;
22480;SDS011;11407;56.964;-2.212;2022-09-03T20:51:53;12.53;;;3.90;;
22480;SDS011;11407;56.964;-2.212;2022-09-03T20:54:31;21.97;;;4.73;;
22480;SDS011;11407;56.964;-2.212;2022-09-03T21:02:41;17.40;;;4.30;;
22480;SDS011;11407;56.964;-2.212;2022-09-03T21:08:25;17.70;;;4.83;;
22480;SDS011;11407;56.964;-2.212;2022-09-03T21:11:03;22.10;;;4.47;;
22480;SDS011;11407;56.964;-2.212;2022-09-03T21:13:42;27.90;;;5.70;;
22480;SDS011;11407;56.964;-2.212;2022-09-03T21:24:21;21.03;;;3.80;;